sensor_id;sensor_type;location;lat;lon;timestamp;temperature;humidity
21678;DHT22;11000;50.360;7.582;2022-10-31T00:01:20;12.10;99.90
21678;DHT22;11000;50.360;7.582;2022-10-31T00:03:41;12.10;99.90
21678;DHT22;11000;50.360;7.582;2022-10-31T00:06:02;12.00;99.90
21678;DHT22;11000;50.360;7.582;2022-10-31T00:08:22;12.00;99.90
21678;DHT22;11000;50.360;7.582;2022-10-31T00:10:44;12.00;99.90
21678;DHT22;11000;50.360;7.582;2022-10-31T00:13:05;12.00;99.90
21678;DHT22;11000;50.360;7.582;2022-10-31T00:15:26;12.00;99.90
21678;DHT22;11000;50.360;7.582;2022-10-31T00:17:46;12.20;99.90
21678;DHT22;11000;50.360;7.582;2022-10-31T00:20:07;12.20;99.90
21678;DHT22;11000;50.360;7.582;2022-10-31T00:22:28;12.30;99.90
21678;DHT22;11000;50.360;7.582;2022-10-31T00:24:48;12.30;99.90
21678;DHT22;11000;50.360;7.582;2022-10-31T00:27:09;12.30;99.90
21678;DHT22;11000;50.360;7.582;2022-10-31T00:29:29;12.30;99.90
21678;DHT22;11000;50.360;7.582;2022-10-31T00:31:50;12.30;99.90
21678;DHT22;11000;50.360;7.582;2022-10-31T00:34:12;12.30;99.90
21678;DHT22;11000;50.360;7.582;2022-10-31T00:36:32;12.20;99.90
21678;DHT22;11000;50.360;7.582;2022-10-31T00:38:53;12.20;99.90
21678;DHT22;11000;50.360;7.582;2022-10-31T00:41:15;12.10;99.90
21678;DHT22;11000;50.360;7.582;2022-10-31T00:43:36;12.10;99.90
21678;DHT22;11000;50.360;7.582;2022-10-31T00:45:57;12.10;99.90
21678;DHT22;11000;50.360;7.582;2022-10-31T00:48:17;12.00;99.90
21678;DHT22;11000;50.360;7.582;2022-10-31T00:50:38;12.00;99.90
21678;DHT22;11000;50.360;7.582;2022-10-31T00:52:59;11.90;99.90
21678;DHT22;11000;50.360;7.582;2022-10-31T00:55:23;11.90;99.90
21678;DHT22;11000;50.360;7.582;2022-10-31T00:57:46;12.00;99.90
21678;DHT22;11000;50.360;7.582;2022-10-31T01:00:08;12.00;99.90
21678;DHT22;11000;50.360;7.582;2022-10-31T01:02:29;12.10;99.90
21678;DHT22;11000;50.360;7.582;2022-10-31T01:04:49;12.10;99.90
21678;DHT22;11000;50.360;7.582;2022-10-31T01:07:10;12.00;99.90
21678;DHT22;11000;50.360;7.582;2022-10-31T01:09:32;12.00;99.90
21678;DHT22;11000;50.360;7.582;2022-10-31T01:11:53;11.90;99.90
21678;DHT22;11000;50.360;7.582;2022-10-31T01:14:13;11.90;99.90
21678;DHT22;11000;50.360;7.582;2022-10-31T01:16:34;11.90;99.90
21678;DHT22;11000;50.360;7.582;2022-10-31T01:18:54;11.90;99.90
21678;DHT22;11000;50.360;7.582;2022-10-31T01:21:17;12.00;99.90
21678;DHT22;11000;50.360;7.582;2022-10-31T01:23:38;11.90;99.90
21678;DHT22;11000;50.360;7.582;2022-10-31T01:26:14;11.90;99.90
21678;DHT22;11000;50.360;7.582;2022-10-31T01:28:42;11.90;99.90
21678;DHT22;11000;50.360;7.582;2022-10-31T01:31:09;11.90;99.90
21678;DHT22;11000;50.360;7.582;2022-10-31T01:33:30;11.90;99.90
21678;DHT22;11000;50.360;7.582;2022-10-31T01:35:50;11.90;99.90
21678;DHT22;11000;50.360;7.582;2022-10-31T01:38:11;11.90;99.90
21678;DHT22;11000;50.360;7.582;2022-10-31T01:40:31;12.00;99.90
21678;DHT22;11000;50.360;7.582;2022-10-31T01:42:52;12.00;99.90
21678;DHT22;11000;50.360;7.582;2022-10-31T01:45:14;12.00;99.90
21678;DHT22;11000;50.360;7.582;2022-10-31T01:47:44;12.00;99.90
21678;DHT22;11000;50.360;7.582;2022-10-31T01:50:11;12.00;99.90
21678;DHT22;11000;50.360;7.582;2022-10-31T01:52:37;12.00;99.90
21678;DHT22;11000;50.360;7.582;2022-10-31T01:55:13;12.00;99.90
21678;DHT22;11000;50.360;7.582;2022-10-31T01:57:37;11.90;99.90
21678;DHT22;11000;50.360;7.582;2022-10-31T02:00:02;11.90;99.90
21678;DHT22;11000;50.360;7.582;2022-10-31T02:02:24;11.90;99.90
21678;DHT22;11000;50.360;7.582;2022-10-31T02:04:46;11.90;99.90
21678;DHT22;11000;50.360;7.582;2022-10-31T02:07:12;11.90;99.90
21678;DHT22;11000;50.360;7.582;2022-10-31T02:09:34;11.80;99.90
21678;DHT22;11000;50.360;7.582;2022-10-31T02:11:57;11.80;99.90
21678;DHT22;11000;50.360;7.582;2022-10-31T02:14:21;11.80;99.90
21678;DHT22;11000;50.360;7.582;2022-10-31T02:16:42;11.80;99.90
21678;DHT22;11000;50.360;7.582;2022-10-31T02:19:04;11.80;99.90
21678;DHT22;11000;50.360;7.582;2022-10-31T02:24:46;11.80;99.90
21678;DHT22;11000;50.360;7.582;2022-10-31T02:30:07;11.80;99.90
21678;DHT22;11000;50.360;7.582;2022-10-31T02:32:50;11.80;99.90
21678;DHT22;11000;50.360;7.582;2022-10-31T02:35:53;11.80;99.90
21678;DHT22;11000;50.360;7.582;2022-10-31T02:41:10;11.70;99.90
21678;DHT22;11000;50.360;7.582;2022-10-31T02:46:31;11.70;99.90
21678;DHT22;11000;50.360;7.582;2022-10-31T02:48:55;11.60;99.90
21678;DHT22;11000;50.360;7.582;2022-10-31T02:51:17;11.60;99.90
21678;DHT22;11000;50.360;7.582;2022-10-31T02:53:38;11.60;99.90
21678;DHT22;11000;50.360;7.582;2022-10-31T02:56:13;11.60;99.90
21678;DHT22;11000;50.360;7.582;2022-10-31T02:58:38;11.60;99.90
21678;DHT22;11000;50.360;7.582;2022-10-31T03:04:20;11.60;99.90
21678;DHT22;11000;50.360;7.582;2022-10-31T03:07:07;11.60;99.90
21678;DHT22;11000;50.360;7.582;2022-10-31T03:09:37;11.60;99.90
21678;DHT22;11000;50.360;7.582;2022-10-31T03:12:16;11.60;99.90
21678;DHT22;11000;50.360;7.582;2022-10-31T03:14:56;11.60;99.90
21678;DHT22;11000;50.360;7.582;2022-10-31T03:17:36;11.60;99.90
21678;DHT22;11000;50.360;7.582;2022-10-31T03:20:00;11.60;99.90
21678;DHT22;11000;50.360;7.582;2022-10-31T03:22:25;11.60;99.90
21678;DHT22;11000;50.360;7.582;2022-10-31T03:24:48;11.60;99.90
21678;DHT22;11000;50.360;7.582;2022-10-31T03:27:14;11.60;99.90
21678;DHT22;11000;50.360;7.582;2022-10-31T03:29:36;11.60;99.90
21678;DHT22;11000;50.360;7.582;2022-10-31T03:32:01;11.60;99.90
21678;DHT22;11000;50.360;7.582;2022-10-31T03:34:23;11.60;99.90
21678;DHT22;11000;50.360;7.582;2022-10-31T03:36:45;11.60;99.90
21678;DHT22;11000;50.360;7.582;2022-10-31T03:39:10;11.50;99.90
21678;DHT22;11000;50.360;7.582;2022-10-31T03:41:35;11.50;99.90
21678;DHT22;11000;50.360;7.582;2022-10-31T03:44:03;11.50;99.90
21678;DHT22;11000;50.360;7.582;2022-10-31T03:46:27;11.40;99.90
21678;DHT22;11000;50.360;7.582;2022-10-31T03:48:47;11.40;99.90
21678;DHT22;11000;50.360;7.582;2022-10-31T03:51:41;11.40;99.90
21678;DHT22;11000;50.360;7.582;2022-10-31T03:54:10;11.40;99.90
21678;DHT22;11000;50.360;7.582;2022-10-31T03:56:51;11.40;99.90
21678;DHT22;11000;50.360;7.582;2022-10-31T03:59:21;11.30;99.90
21678;DHT22;11000;50.360;7.582;2022-10-31T04:01:47;11.30;99.90
21678;DHT22;11000;50.360;7.582;2022-10-31T04:04:10;11.30;99.90
21678;DHT22;11000;50.360;7.582;2022-10-31T04:06:33;11.30;99.90
21678;DHT22;11000;50.360;7.582;2022-10-31T04:08:57;11.30;99.90
21678;DHT22;11000;50.360;7.582;2022-10-31T04:11:23;11.30;99.90
21678;DHT22;11000;50.360;7.582;2022-10-31T04:13:45;11.30;99.90
21678;DHT22;11000;50.360;7.582;2022-10-31T04:16:07;11.30;99.90
21678;DHT22;11000;50.360;7.582;2022-10-31T04:18:28;11.30;99.90
21678;DHT22;11000;50.360;7.582;2022-10-31T04:20:49;11.30;99.90
21678;DHT22;11000;50.360;7.582;2022-10-31T04:23:25;11.30;99.90
21678;DHT22;11000;50.360;7.582;2022-10-31T04:25:46;11.40;99.90
21678;DHT22;11000;50.360;7.582;2022-10-31T04:28:06;11.30;99.90
21678;DHT22;11000;50.360;7.582;2022-10-31T04:30:27;11.30;99.90
21678;DHT22;11000;50.360;7.582;2022-10-31T04:32:47;11.30;99.90
21678;DHT22;11000;50.360;7.582;2022-10-31T04:35:08;11.20;99.90
21678;DHT22;11000;50.360;7.582;2022-10-31T04:37:29;11.30;99.90
21678;DHT22;11000;50.360;7.582;2022-10-31T04:39:49;11.30;99.90
21678;DHT22;11000;50.360;7.582;2022-10-31T04:42:09;11.20;99.90
21678;DHT22;11000;50.360;7.582;2022-10-31T04:44:30;11.20;99.90
21678;DHT22;11000;50.360;7.582;2022-10-31T04:46:50;11.20;99.90
21678;DHT22;11000;50.360;7.582;2022-10-31T04:49:11;11.20;99.90
21678;DHT22;11000;50.360;7.582;2022-10-31T04:51:31;11.20;99.90
21678;DHT22;11000;50.360;7.582;2022-10-31T04:53:52;11.10;99.90
21678;DHT22;11000;50.360;7.582;2022-10-31T04:56:13;11.10;99.90
21678;DHT22;11000;50.360;7.582;2022-10-31T04:58:33;11.10;99.90
21678;DHT22;11000;50.360;7.582;2022-10-31T05:00:55;11.10;99.90
21678;DHT22;11000;50.360;7.582;2022-10-31T05:03:15;11.10;99.90
21678;DHT22;11000;50.360;7.582;2022-10-31T05:05:36;11.10;99.90
21678;DHT22;11000;50.360;7.582;2022-10-31T05:07:57;11.10;99.90
21678;DHT22;11000;50.360;7.582;2022-10-31T05:10:20;11.10;99.90
21678;DHT22;11000;50.360;7.582;2022-10-31T05:12:48;11.20;99.90
21678;DHT22;11000;50.360;7.582;2022-10-31T05:15:09;11.10;99.90
21678;DHT22;11000;50.360;7.582;2022-10-31T05:17:30;11.10;99.90
21678;DHT22;11000;50.360;7.582;2022-10-31T05:19:51;11.10;99.90
21678;DHT22;11000;50.360;7.582;2022-10-31T05:22:11;11.10;99.90
21678;DHT22;11000;50.360;7.582;2022-10-31T05:24:32;11.10;99.90
21678;DHT22;11000;50.360;7.582;2022-10-31T05:26:53;11.10;99.90
21678;DHT22;11000;50.360;7.582;2022-10-31T05:29:13;11.00;99.90
21678;DHT22;11000;50.360;7.582;2022-10-31T05:31:34;11.00;99.90
21678;DHT22;11000;50.360;7.582;2022-10-31T05:33:54;11.00;99.90
21678;DHT22;11000;50.360;7.582;2022-10-31T05:36:15;10.90;99.90
21678;DHT22;11000;50.360;7.582;2022-10-31T05:38:35;10.90;99.90
21678;DHT22;11000;50.360;7.582;2022-10-31T05:40:56;10.90;99.90
21678;DHT22;11000;50.360;7.582;2022-10-31T05:43:22;10.90;99.90
21678;DHT22;11000;50.360;7.582;2022-10-31T05:45:44;10.90;99.90
21678;DHT22;11000;50.360;7.582;2022-10-31T05:48:04;10.80;99.90
21678;DHT22;11000;50.360;7.582;2022-10-31T05:50:27;10.90;99.90
21678;DHT22;11000;50.360;7.582;2022-10-31T05:52:54;10.90;99.90
21678;DHT22;11000;50.360;7.582;2022-10-31T05:55:15;10.90;99.90
21678;DHT22;11000;50.360;7.582;2022-10-31T05:57:35;11.00;99.90
21678;DHT22;11000;50.360;7.582;2022-10-31T05:59:56;11.00;99.90
21678;DHT22;11000;50.360;7.582;2022-10-31T06:02:16;11.00;99.90
21678;DHT22;11000;50.360;7.582;2022-10-31T06:04:37;11.10;99.90
21678;DHT22;11000;50.360;7.582;2022-10-31T06:06:57;11.10;99.90
21678;DHT22;11000;50.360;7.582;2022-10-31T06:09:18;11.10;99.90
21678;DHT22;11000;50.360;7.582;2022-10-31T06:11:38;11.10;99.90
21678;DHT22;11000;50.360;7.582;2022-10-31T06:14:00;11.20;99.90
21678;DHT22;11000;50.360;7.582;2022-10-31T06:16:20;11.20;99.90
21678;DHT22;11000;50.360;7.582;2022-10-31T06:18:41;11.10;99.90
21678;DHT22;11000;50.360;7.582;2022-10-31T06:21:01;11.10;99.90
21678;DHT22;11000;50.360;7.582;2022-10-31T06:23:22;11.10;99.90
21678;DHT22;11000;50.360;7.582;2022-10-31T06:25:42;11.10;99.90
21678;DHT22;11000;50.360;7.582;2022-10-31T06:28:03;11.10;99.90
21678;DHT22;11000;50.360;7.582;2022-10-31T06:30:24;11.10;99.90
21678;DHT22;11000;50.360;7.582;2022-10-31T06:32:45;11.10;99.90
21678;DHT22;11000;50.360;7.582;2022-10-31T06:35:06;11.10;99.90
21678;DHT22;11000;50.360;7.582;2022-10-31T06:37:26;11.10;99.90
21678;DHT22;11000;50.360;7.582;2022-10-31T06:39:47;11.10;99.90
21678;DHT22;11000;50.360;7.582;2022-10-31T06:42:07;11.10;99.90
21678;DHT22;11000;50.360;7.582;2022-10-31T06:44:28;11.10;99.90
21678;DHT22;11000;50.360;7.582;2022-10-31T06:46:48;11.20;99.90
21678;DHT22;11000;50.360;7.582;2022-10-31T06:49:09;11.20;99.90
21678;DHT22;11000;50.360;7.582;2022-10-31T06:51:29;11.20;99.90
21678;DHT22;11000;50.360;7.582;2022-10-31T06:53:50;11.20;99.90
21678;DHT22;11000;50.360;7.582;2022-10-31T06:56:11;11.30;99.90
21678;DHT22;11000;50.360;7.582;2022-10-31T06:58:31;11.30;99.90
21678;DHT22;11000;50.360;7.582;2022-10-31T07:00:52;11.30;99.90
21678;DHT22;11000;50.360;7.582;2022-10-31T07:03:13;11.30;99.90
21678;DHT22;11000;50.360;7.582;2022-10-31T07:05:35;11.30;99.90
21678;DHT22;11000;50.360;7.582;2022-10-31T07:07:58;11.30;99.90
21678;DHT22;11000;50.360;7.582;2022-10-31T07:10:18;11.40;99.90
21678;DHT22;11000;50.360;7.582;2022-10-31T07:12:39;11.40;99.90
21678;DHT22;11000;50.360;7.582;2022-10-31T07:15:00;11.40;99.90
21678;DHT22;11000;50.360;7.582;2022-10-31T07:17:23;11.40;99.90
21678;DHT22;11000;50.360;7.582;2022-10-31T07:19:44;11.40;99.90
21678;DHT22;11000;50.360;7.582;2022-10-31T07:22:05;11.40;99.90
21678;DHT22;11000;50.360;7.582;2022-10-31T07:24:25;11.40;99.90
21678;DHT22;11000;50.360;7.582;2022-10-31T07:26:46;11.40;99.90
21678;DHT22;11000;50.360;7.582;2022-10-31T07:29:07;11.40;99.90
21678;DHT22;11000;50.360;7.582;2022-10-31T07:31:28;11.40;99.90
21678;DHT22;11000;50.360;7.582;2022-10-31T07:33:48;11.30;99.90
21678;DHT22;11000;50.360;7.582;2022-10-31T07:36:09;11.30;99.90
21678;DHT22;11000;50.360;7.582;2022-10-31T07:38:29;11.30;99.90
21678;DHT22;11000;50.360;7.582;2022-10-31T07:40:51;11.40;99.90
21678;DHT22;11000;50.360;7.582;2022-10-31T07:43:13;11.40;99.90
21678;DHT22;11000;50.360;7.582;2022-10-31T07:45:33;11.50;99.90
21678;DHT22;11000;50.360;7.582;2022-10-31T07:47:54;11.50;99.90
21678;DHT22;11000;50.360;7.582;2022-10-31T07:50:19;11.50;99.90
21678;DHT22;11000;50.360;7.582;2022-10-31T07:52:40;11.50;99.90
21678;DHT22;11000;50.360;7.582;2022-10-31T07:55:01;11.50;99.90
21678;DHT22;11000;50.360;7.582;2022-10-31T07:57:21;11.50;99.90
21678;DHT22;11000;50.360;7.582;2022-10-31T07:59:42;11.50;99.90
21678;DHT22;11000;50.360;7.582;2022-10-31T08:02:03;11.50;99.90
21678;DHT22;11000;50.360;7.582;2022-10-31T08:04:23;11.60;99.90
21678;DHT22;11000;50.360;7.582;2022-10-31T08:06:44;11.50;99.90
21678;DHT22;11000;50.360;7.582;2022-10-31T08:09:04;11.50;99.90
21678;DHT22;11000;50.360;7.582;2022-10-31T08:11:25;11.60;99.90
21678;DHT22;11000;50.360;7.582;2022-10-31T08:13:46;11.60;99.90
21678;DHT22;11000;50.360;7.582;2022-10-31T08:16:07;11.60;99.90
21678;DHT22;11000;50.360;7.582;2022-10-31T08:18:27;11.70;99.90
21678;DHT22;11000;50.360;7.582;2022-10-31T08:20:49;11.70;99.90
21678;DHT22;11000;50.360;7.582;2022-10-31T08:23:11;11.50;99.90
21678;DHT22;11000;50.360;7.582;2022-10-31T08:25:33;11.60;99.90
21678;DHT22;11000;50.360;7.582;2022-10-31T08:27:55;11.70;99.90
21678;DHT22;11000;50.360;7.582;2022-10-31T08:30:16;11.80;99.90
21678;DHT22;11000;50.360;7.582;2022-10-31T08:32:36;11.80;99.90
21678;DHT22;11000;50.360;7.582;2022-10-31T08:34:57;11.90;99.90
21678;DHT22;11000;50.360;7.582;2022-10-31T08:37:19;11.90;99.90
21678;DHT22;11000;50.360;7.582;2022-10-31T08:39:40;12.00;99.90
21678;DHT22;11000;50.360;7.582;2022-10-31T08:42:00;12.10;99.90
21678;DHT22;11000;50.360;7.582;2022-10-31T08:44:21;12.10;99.90
21678;DHT22;11000;50.360;7.582;2022-10-31T08:46:41;12.20;99.90
21678;DHT22;11000;50.360;7.582;2022-10-31T08:49:02;12.20;99.90
21678;DHT22;11000;50.360;7.582;2022-10-31T08:51:22;12.30;99.90
21678;DHT22;11000;50.360;7.582;2022-10-31T08:53:43;12.10;99.90
21678;DHT22;11000;50.360;7.582;2022-10-31T08:56:04;12.20;99.90
21678;DHT22;11000;50.360;7.582;2022-10-31T08:58:25;12.20;99.90
21678;DHT22;11000;50.360;7.582;2022-10-31T09:00:47;12.20;99.90
21678;DHT22;11000;50.360;7.582;2022-10-31T09:03:23;12.20;99.90
21678;DHT22;11000;50.360;7.582;2022-10-31T09:05:44;12.30;99.90
21678;DHT22;11000;50.360;7.582;2022-10-31T09:08:06;12.50;99.90
21678;DHT22;11000;50.360;7.582;2022-10-31T09:10:28;12.50;99.90
21678;DHT22;11000;50.360;7.582;2022-10-31T09:13:00;12.50;99.90
21678;DHT22;11000;50.360;7.582;2022-10-31T09:15:21;12.60;99.90
21678;DHT22;11000;50.360;7.582;2022-10-31T09:17:46;12.60;99.90
21678;DHT22;11000;50.360;7.582;2022-10-31T09:20:08;12.60;99.90
21678;DHT22;11000;50.360;7.582;2022-10-31T09:22:29;12.70;99.90
21678;DHT22;11000;50.360;7.582;2022-10-31T09:24:49;12.70;99.90
21678;DHT22;11000;50.360;7.582;2022-10-31T09:27:10;12.80;99.90
21678;DHT22;11000;50.360;7.582;2022-10-31T09:29:30;12.90;99.90
21678;DHT22;11000;50.360;7.582;2022-10-31T09:31:51;12.90;99.90
21678;DHT22;11000;50.360;7.582;2022-10-31T09:34:11;12.80;99.90
21678;DHT22;11000;50.360;7.582;2022-10-31T09:36:32;13.00;99.90
21678;DHT22;11000;50.360;7.582;2022-10-31T09:38:52;13.00;99.90
21678;DHT22;11000;50.360;7.582;2022-10-31T09:41:47;13.10;99.90
21678;DHT22;11000;50.360;7.582;2022-10-31T09:51:50;13.40;99.90
21678;DHT22;11000;50.360;7.582;2022-10-31T09:54:29;13.40;99.90
21678;DHT22;11000;50.360;7.582;2022-10-31T09:56:50;13.50;99.90
21678;DHT22;11000;50.360;7.582;2022-10-31T09:59:21;13.60;99.90
21678;DHT22;11000;50.360;7.582;2022-10-31T10:01:59;13.50;99.90
21678;DHT22;11000;50.360;7.582;2022-10-31T10:09:41;13.60;99.90
21678;DHT22;11000;50.360;7.582;2022-10-31T10:15:09;13.60;99.90
21678;DHT22;11000;50.360;7.582;2022-10-31T10:25:38;14.00;99.90
21678;DHT22;11000;50.360;7.582;2022-10-31T10:28:25;14.10;99.90
21678;DHT22;11000;50.360;7.582;2022-10-31T10:33:24;14.30;99.90
21678;DHT22;11000;50.360;7.582;2022-10-31T10:35:52;14.20;99.90
21678;DHT22;11000;50.360;7.582;2022-10-31T10:40:43;13.90;99.90
21678;DHT22;11000;50.360;7.582;2022-10-31T10:45:59;14.00;99.90
21678;DHT22;11000;50.360;7.582;2022-10-31T10:48:45;14.20;99.90
21678;DHT22;11000;50.360;7.582;2022-10-31T10:51:27;14.40;99.90
21678;DHT22;11000;50.360;7.582;2022-10-31T10:56:34;14.50;99.90
21678;DHT22;11000;50.360;7.582;2022-10-31T10:58:57;14.30;99.90
21678;DHT22;11000;50.360;7.582;2022-10-31T11:01:18;14.40;99.90
21678;DHT22;11000;50.360;7.582;2022-10-31T11:03:39;14.50;99.90
21678;DHT22;11000;50.360;7.582;2022-10-31T11:05:59;14.40;99.90
21678;DHT22;11000;50.360;7.582;2022-10-31T11:08:25;14.40;99.90
21678;DHT22;11000;50.360;7.582;2022-10-31T11:10:55;14.60;99.90
21678;DHT22;11000;50.360;7.582;2022-10-31T11:13:25;14.50;99.90
21678;DHT22;11000;50.360;7.582;2022-10-31T11:16:06;14.40;99.90
21678;DHT22;11000;50.360;7.582;2022-10-31T11:18:34;14.50;99.90
21678;DHT22;11000;50.360;7.582;2022-10-31T11:20:58;14.70;99.90
21678;DHT22;11000;50.360;7.582;2022-10-31T11:23:20;14.80;99.90
21678;DHT22;11000;50.360;7.582;2022-10-31T11:28:11;14.80;99.90
21678;DHT22;11000;50.360;7.582;2022-10-31T11:30:42;14.70;99.90
21678;DHT22;11000;50.360;7.582;2022-10-31T11:33:03;14.70;99.90
21678;DHT22;11000;50.360;7.582;2022-10-31T11:35:24;14.50;99.90
21678;DHT22;11000;50.360;7.582;2022-10-31T11:37:48;14.60;99.90
21678;DHT22;11000;50.360;7.582;2022-10-31T11:40:24;14.70;99.90
21678;DHT22;11000;50.360;7.582;2022-10-31T11:42:45;14.70;99.90
21678;DHT22;11000;50.360;7.582;2022-10-31T11:45:17;14.90;99.90
21678;DHT22;11000;50.360;7.582;2022-10-31T11:47:42;15.00;99.90
21678;DHT22;11000;50.360;7.582;2022-10-31T11:50:10;15.10;99.90
21678;DHT22;11000;50.360;7.582;2022-10-31T11:52:32;15.20;99.90
21678;DHT22;11000;50.360;7.582;2022-10-31T11:55:13;15.30;99.90
21678;DHT22;11000;50.360;7.582;2022-10-31T11:57:49;15.50;99.90
21678;DHT22;11000;50.360;7.582;2022-10-31T12:00:29;15.60;99.90
21678;DHT22;11000;50.360;7.582;2022-10-31T12:02:50;15.60;99.90
21678;DHT22;11000;50.360;7.582;2022-10-31T12:05:24;15.40;99.90
21678;DHT22;11000;50.360;7.582;2022-10-31T12:07:49;15.50;99.90
21678;DHT22;11000;50.360;7.582;2022-10-31T12:10:11;15.70;99.90
21678;DHT22;11000;50.360;7.582;2022-10-31T12:15:30;15.70;99.90
21678;DHT22;11000;50.360;7.582;2022-10-31T12:18:02;15.90;99.90
21678;DHT22;11000;50.360;7.582;2022-10-31T12:23:19;16.10;99.90
21678;DHT22;11000;50.360;7.582;2022-10-31T12:26:01;15.90;99.90
21678;DHT22;11000;50.360;7.582;2022-10-31T12:28:50;15.80;99.90
21678;DHT22;11000;50.360;7.582;2022-10-31T12:31:41;15.90;99.90
21678;DHT22;11000;50.360;7.582;2022-10-31T12:34:44;15.80;99.90
21678;DHT22;11000;50.360;7.582;2022-10-31T12:37:21;15.80;99.90
21678;DHT22;11000;50.360;7.582;2022-10-31T12:45:29;15.90;99.90
21678;DHT22;11000;50.360;7.582;2022-10-31T12:50:51;16.10;99.90
21678;DHT22;11000;50.360;7.582;2022-10-31T12:53:44;16.30;99.90
21678;DHT22;11000;50.360;7.582;2022-10-31T12:56:22;16.30;99.90
21678;DHT22;11000;50.360;7.582;2022-10-31T13:01:39;16.20;99.90
21678;DHT22;11000;50.360;7.582;2022-10-31T13:06:57;15.90;99.90
21678;DHT22;11000;50.360;7.582;2022-10-31T13:09:26;15.90;99.90
21678;DHT22;11000;50.360;7.582;2022-10-31T13:11:56;16.00;99.90
21678;DHT22;11000;50.360;7.582;2022-10-31T13:14:28;16.30;99.90
21678;DHT22;11000;50.360;7.582;2022-10-31T13:16:50;16.50;99.90
21678;DHT22;11000;50.360;7.582;2022-10-31T13:19:25;16.50;99.90
21678;DHT22;11000;50.360;7.582;2022-10-31T13:24:20;16.60;99.90
21678;DHT22;11000;50.360;7.582;2022-10-31T13:26:46;16.60;99.90
21678;DHT22;11000;50.360;7.582;2022-10-31T13:29:20;16.60;99.90
21678;DHT22;11000;50.360;7.582;2022-10-31T13:31:43;16.70;99.90
21678;DHT22;11000;50.360;7.582;2022-10-31T13:34:10;16.70;99.90
21678;DHT22;11000;50.360;7.582;2022-10-31T13:40:05;16.60;99.90
21678;DHT22;11000;50.360;7.582;2022-10-31T13:45:16;16.80;99.90
21678;DHT22;11000;50.360;7.582;2022-10-31T13:47:37;16.90;99.90
21678;DHT22;11000;50.360;7.582;2022-10-31T13:50:19;16.90;99.90
21678;DHT22;11000;50.360;7.582;2022-10-31T13:52:40;17.00;99.90
21678;DHT22;11000;50.360;7.582;2022-10-31T13:55:01;17.10;99.90
21678;DHT22;11000;50.360;7.582;2022-10-31T13:57:43;17.10;99.90
21678;DHT22;11000;50.360;7.582;2022-10-31T14:00:25;17.00;99.90
21678;DHT22;11000;50.360;7.582;2022-10-31T14:02:49;17.10;99.90
21678;DHT22;11000;50.360;7.582;2022-10-31T14:07:45;17.20;99.90
21678;DHT22;11000;50.360;7.582;2022-10-31T14:10:22;17.10;99.90
21678;DHT22;11000;50.360;7.582;2022-10-31T14:12:46;17.10;99.90
21678;DHT22;11000;50.360;7.582;2022-10-31T14:15:19;17.10;99.90
21678;DHT22;11000;50.360;7.582;2022-10-31T14:18:01;17.20;99.90
21678;DHT22;11000;50.360;7.582;2022-10-31T14:20:26;17.20;99.90
21678;DHT22;11000;50.360;7.582;2022-10-31T14:22:52;17.10;99.90
21678;DHT22;11000;50.360;7.582;2022-10-31T14:25:33;17.10;99.90
21678;DHT22;11000;50.360;7.582;2022-10-31T14:27:55;17.10;99.90
21678;DHT22;11000;50.360;7.582;2022-10-31T14:30:21;17.10;99.90
21678;DHT22;11000;50.360;7.582;2022-10-31T14:32:43;17.20;99.90
21678;DHT22;11000;50.360;7.582;2022-10-31T14:35:04;17.20;99.90
21678;DHT22;11000;50.360;7.582;2022-10-31T14:48:57;17.40;99.90
21678;DHT22;11000;50.360;7.582;2022-10-31T14:51:26;17.50;99.90
21678;DHT22;11000;50.360;7.582;2022-10-31T14:53:54;17.60;99.90
21678;DHT22;11000;50.360;7.582;2022-10-31T14:56:46;17.60;99.90
21678;DHT22;11000;50.360;7.582;2022-10-31T14:59:11;17.80;99.90
21678;DHT22;11000;50.360;7.582;2022-10-31T15:01:34;17.80;99.90
21678;DHT22;11000;50.360;7.582;2022-10-31T15:04:27;17.70;99.90
21678;DHT22;11000;50.360;7.582;2022-10-31T15:06:51;17.50;99.90
21678;DHT22;11000;50.360;7.582;2022-10-31T15:09:24;17.50;99.90
21678;DHT22;11000;50.360;7.582;2022-10-31T15:11:45;17.50;99.90
21678;DHT22;11000;50.360;7.582;2022-10-31T15:14:21;17.40;99.90
21678;DHT22;11000;50.360;7.582;2022-10-31T15:16:43;17.40;99.90
21678;DHT22;11000;50.360;7.582;2022-10-31T15:19:10;17.30;99.90
21678;DHT22;11000;50.360;7.582;2022-10-31T15:21:33;17.30;99.90
21678;DHT22;11000;50.360;7.582;2022-10-31T15:23:56;17.30;99.90
21678;DHT22;11000;50.360;7.582;2022-10-31T15:26:19;17.20;99.90
21678;DHT22;11000;50.360;7.582;2022-10-31T15:28:40;17.20;99.90
21678;DHT22;11000;50.360;7.582;2022-10-31T15:31:01;17.10;99.90
21678;DHT22;11000;50.360;7.582;2022-10-31T15:33:40;17.10;99.90
21678;DHT22;11000;50.360;7.582;2022-10-31T15:36:01;17.10;99.90
21678;DHT22;11000;50.360;7.582;2022-10-31T15:38:23;17.00;99.90
21678;DHT22;11000;50.360;7.582;2022-10-31T15:40:52;17.10;99.90
21678;DHT22;11000;50.360;7.582;2022-10-31T15:43:16;17.20;99.90
21678;DHT22;11000;50.360;7.582;2022-10-31T15:45:36;17.10;99.90
21678;DHT22;11000;50.360;7.582;2022-10-31T15:48:12;17.20;99.90
21678;DHT22;11000;50.360;7.582;2022-10-31T15:50:44;17.30;99.90
21678;DHT22;11000;50.360;7.582;2022-10-31T15:53:12;17.40;99.90
21678;DHT22;11000;50.360;7.582;2022-10-31T15:55:38;17.40;99.90
21678;DHT22;11000;50.360;7.582;2022-10-31T15:58:12;17.50;99.90
21678;DHT22;11000;50.360;7.582;2022-10-31T16:00:35;17.50;99.90
21678;DHT22;11000;50.360;7.582;2022-10-31T16:05:44;17.30;99.90
21678;DHT22;11000;50.360;7.582;2022-10-31T16:10:42;17.10;99.90
21678;DHT22;11000;50.360;7.582;2022-10-31T16:13:08;17.00;99.90
21678;DHT22;11000;50.360;7.582;2022-10-31T16:15:28;16.90;99.90
21678;DHT22;11000;50.360;7.582;2022-10-31T16:17:51;16.80;99.90
21678;DHT22;11000;50.360;7.582;2022-10-31T16:20:23;16.80;99.90
21678;DHT22;11000;50.360;7.582;2022-10-31T16:22:49;16.70;99.90
21678;DHT22;11000;50.360;7.582;2022-10-31T16:25:13;16.70;99.90
21678;DHT22;11000;50.360;7.582;2022-10-31T16:27:36;16.70;99.90
21678;DHT22;11000;50.360;7.582;2022-10-31T16:29:59;16.60;99.90
21678;DHT22;11000;50.360;7.582;2022-10-31T16:35:22;16.70;99.90
21678;DHT22;11000;50.360;7.582;2022-10-31T16:37:41;16.70;99.90
21678;DHT22;11000;50.360;7.582;2022-10-31T16:40:02;16.70;99.90
21678;DHT22;11000;50.360;7.582;2022-10-31T16:42:22;16.70;99.90
21678;DHT22;11000;50.360;7.582;2022-10-31T16:44:46;16.60;99.90
21678;DHT22;11000;50.360;7.582;2022-10-31T16:47:15;16.60;99.90
21678;DHT22;11000;50.360;7.582;2022-10-31T16:49:40;16.60;99.90
21678;DHT22;11000;50.360;7.582;2022-10-31T16:52:01;16.40;99.90
21678;DHT22;11000;50.360;7.582;2022-10-31T16:54:21;16.30;99.90
21678;DHT22;11000;50.360;7.582;2022-10-31T16:56:42;16.30;99.90
21678;DHT22;11000;50.360;7.582;2022-10-31T16:59:05;16.10;99.90